Time;durP1;ratioP1;P1;durP2;ratioP2;P2;SDS_P1;SDS_P2;PMS_P1;PMS_P2;Temp;Humidity;BMP_temperature;BMP_pressure;BME280_temperature;BME280_humidity;BME280_pressure;Samples;Min_cycle;Max_cycle;Signal;HPM_P1;HPM_P2
2023/11/19 00:02:09;;;;;;;3.30;2.57;;;9.30;99.90;;;;;;5041054;28;21010;-74
2023/11/19 00:04:55;;;;;;;4.07;2.00;;;9.30;99.90;;;;;;5046359;28;20810;-74
2023/11/19 00:07:42;;;;;;;2.30;2.07;;;9.30;99.90;;;;;;5047866;28;21092;-74
2023/11/19 00:10:28;;;;;;;2.37;2.03;;;9.30;99.90;;;;;;5050695;28;20419;-75
2023/11/19 00:13:13;;;;;;;3.83;2.27;;;9.20;99.90;;;;;;5049319;28;20448;-74
2023/11/19 00:15:59;;;;;;;5.07;2.10;;;9.20;99.90;;;;;;5045225;28;20433;-75
2023/11/19 00:18:45;;;;;;;2.27;1.77;;;9.20;99.90;;;;;;5049272;28;20434;-75
2023/11/19 00:21:33;;;;;;;5.00;3.93;;;9.30;99.90;;;;;;5038961;28;20462;-75
2023/11/19 00:24:20;;;;;;;2.93;1.87;;;9.30;99.90;;;;;;5046727;28;20835;-75
2023/11/19 00:27:07;;;;;;;2.97;2.13;;;9.30;99.90;;;;;;5049772;28;21437;-76
2023/11/19 00:29:53;;;;;;;3.10;2.37;;;9.40;99.90;;;;;;5043218;28;20432;-75
2023/11/19 00:32:39;;;;;;;2.90;1.57;;;9.40;99.90;;;;;;5048855;28;20978;-75
2023/11/19 00:35:25;;;;;;;2.00;1.70;;;9.40;99.90;;;;;;5038798;28;20420;-75
2023/11/19 00:38:10;;;;;;;3.57;1.80;;;9.40;99.90;;;;;;5048709;28;20449;-75
2023/11/19 00:40:58;;;;;;;2.60;1.50;;;9.40;99.90;;;;;;5049741;28;20410;-75
2023/11/19 00:43:43;;;;;;;2.30;1.70;;;9.50;99.90;;;;;;5049289;28;20469;-75
2023/11/19 00:46:29;;;;;;;2.43;1.53;;;9.50;99.90;;;;;;5049371;28;20798;-74
2023/11/19 00:49:15;;;;;;;1.70;1.20;;;9.60;99.90;;;;;;5048435;28;20420;-74
2023/11/19 00:52:02;;;;;;;1.97;1.30;;;9.60;99.90;;;;;;5046041;28;20428;-74
2023/11/19 00:54:47;;;;;;;1.83;1.23;;;9.60;99.90;;;;;;5049399;28;20464;-75
2023/11/19 00:57:35;;;;;;;1.87;1.37;;;9.60;99.90;;;;;;5044626;28;20503;-75
2023/11/19 01:00:24;;;;;;;1.60;1.10;;;9.60;99.90;;;;;;5049336;28;20918;-75
2023/11/19 01:03:09;;;;;;;2.83;0.90;;;9.70;99.90;;;;;;5037253;28;20442;-75
2023/11/19 01:05:55;;;;;;;1.93;1.37;;;9.70;99.90;;;;;;5043775;28;20535;-75
2023/11/19 01:08:41;;;;;;;1.37;0.80;;;9.70;99.90;;;;;;5044128;28;20582;-75
2023/11/19 01:11:28;;;;;;;1.77;1.00;;;9.70;99.90;;;;;;5049478;28;20456;-75
2023/11/19 01:14:15;;;;;;;5.60;1.20;;;9.70;99.90;;;;;;5048657;28;20403;-75
2023/11/19 01:17:01;;;;;;;1.27;0.70;;;9.80;99.90;;;;;;5049394;28;20428;-75
2023/11/19 01:19:47;;;;;;;1.20;0.73;;;9.80;99.90;;;;;;5049307;28;20429;-75
2023/11/19 01:22:33;;;;;;;5.60;0.87;;;9.80;99.90;;;;;;5045594;28;20432;-75
2023/11/19 01:25:19;;;;;;;2.20;1.20;;;9.80;99.90;;;;;;5043931;28;20467;-75
2023/11/19 01:28:04;;;;;;;1.47;0.87;;;9.80;99.90;;;;;;5043377;28;20508;-75
2023/11/19 01:30:53;;;;;;;1.60;0.93;;;9.80;99.90;;;;;;5042256;28;20532;-75
2023/11/19 01:33:39;;;;;;;1.27;0.80;;;9.80;99.90;;;;;;5048927;28;20940;-75
2023/11/19 01:36:25;;;;;;;1.60;0.90;;;9.80;99.90;;;;;;5048652;28;20526;-75
2023/11/19 01:39:10;;;;;;;1.43;1.00;;;9.80;99.90;;;;;;5048115;28;20437;-75
2023/11/19 01:41:56;;;;;;;1.30;0.90;;;9.80;99.90;;;;;;5043037;28;20432;-75
2023/11/19 01:44:42;;;;;;;1.23;0.80;;;9.80;99.90;;;;;;5049195;28;20442;-75
2023/11/19 01:47:31;;;;;;;1.33;0.80;;;9.70;99.90;;;;;;5049009;28;20447;-76
2023/11/19 01:50:17;;;;;;;1.20;0.80;;;9.80;99.90;;;;;;5043497;28;20408;-75
2023/11/19 01:53:02;;;;;;;1.30;0.90;;;9.80;99.90;;;;;;5022780;28;21017;-74
2023/11/19 01:55:49;;;;;;;1.67;1.00;;;9.80;99.90;;;;;;5028815;28;20413;-75
2023/11/19 01:58:34;;;;;;;1.50;1.00;;;9.80;99.90;;;;;;5023379;28;20461;-75
2023/11/19 02:01:20;;;;;;;1.60;0.90;;;9.90;99.90;;;;;;5021522;28;20465;-74
2023/11/19 02:04:08;;;;;;;1.60;0.90;;;9.90;99.90;;;;;;5030950;28;20484;-75
2023/11/19 02:06:59;;;;;;;1.37;0.77;;;9.90;99.90;;;;;;5031987;28;21025;-75
2023/11/19 02:09:45;;;;;;;2.17;1.17;;;10.00;99.90;;;;;;5029618;28;20503;-75
2023/11/19 02:12:33;;;;;;;1.20;0.70;;;10.00;99.90;;;;;;5016008;28;20489;-74
2023/11/19 02:15:19;;;;;;;3.37;0.90;;;9.90;99.90;;;;;;5028168;28;20512;-73
2023/11/19 02:18:19;;;;;;;1.10;0.50;;;9.90;99.90;;;;;;5038809;28;20430;-74
2023/11/19 02:21:07;;;;;;;1.27;0.70;;;9.90;99.90;;;;;;5029459;28;20458;-74
2023/11/19 02:23:53;;;;;;;2.27;0.67;;;10.00;99.90;;;;;;5039023;28;20473;-74
2023/11/19 02:26:45;;;;;;;1.60;0.80;;;10.00;99.90;;;;;;5021604;28;20477;-74
2023/11/19 02:29:32;;;;;;;1.83;0.97;;;10.00;99.90;;;;;;5017912;28;20800;-75
2023/11/19 02:32:18;;;;;;;2.03;0.70;;;9.90;99.90;;;;;;5031871;28;20442;-74
2023/11/19 02:35:04;;;;;;;1.40;0.87;;;10.00;99.90;;;;;;5032188;28;20569;-74
2023/11/19 02:37:50;;;;;;;1.40;0.80;;;10.00;99.90;;;;;;5032336;28;20822;-74
2023/11/19 02:40:35;;;;;;;1.47;1.07;;;10.10;99.90;;;;;;5031047;28;20865;-74
2023/11/19 02:43:21;;;;;;;1.30;0.70;;;10.10;99.90;;;;;;5025306;28;20426;-74
2023/11/19 02:46:08;;;;;;;1.40;0.83;;;10.10;99.90;;;;;;5033197;28;21139;-74
2023/11/19 02:48:54;;;;;;;6.07;1.00;;;10.20;99.90;;;;;;5035461;28;20626;-75
2023/11/19 02:51:40;;;;;;;1.20;0.70;;;10.20;99.90;;;;;;5031123;28;20438;-74
2023/11/19 02:54:27;;;;;;;1.50;1.20;;;10.20;99.90;;;;;;5036313;28;20419;-74
2023/11/19 02:57:13;;;;;;;1.40;0.80;;;10.30;99.90;;;;;;5036953;28;20437;-74
2023/11/19 02:59:58;;;;;;;2.10;1.00;;;10.30;99.90;;;;;;5035852;28;20408;-74
2023/11/19 03:02:47;;;;;;;1.33;0.70;;;10.30;99.90;;;;;;5036418;28;20450;-74
2023/11/19 03:05:33;;;;;;;1.67;0.77;;;10.40;99.90;;;;;;5032450;28;20458;-75
2023/11/19 03:08:18;;;;;;;1.30;0.90;;;10.30;99.90;;;;;;5036320;28;20453;-74
2023/11/19 03:11:05;;;;;;;1.43;0.90;;;10.40;99.90;;;;;;5037352;28;20952;-74
2023/11/19 03:13:51;;;;;;;3.97;1.20;;;10.40;99.90;;;;;;5036796;28;20992;-74
2023/11/19 03:16:36;;;;;;;1.53;0.90;;;10.50;99.90;;;;;;5030560;28;20425;-74
2023/11/19 03:19:23;;;;;;;1.30;0.80;;;10.40;99.90;;;;;;5036496;28;20426;-74
2023/11/19 03:22:10;;;;;;;1.80;1.00;;;10.40;99.90;;;;;;5037243;28;20453;-74
2023/11/19 03:24:57;;;;;;;2.13;1.23;;;10.50;99.90;;;;;;5034108;28;20482;-74
2023/11/19 03:27:42;;;;;;;3.83;0.97;;;10.50;99.90;;;;;;5031604;28;20553;-74
2023/11/19 03:30:29;;;;;;;2.10;1.43;;;10.40;99.90;;;;;;5036823;28;20433;-74
2023/11/19 03:33:14;;;;;;;1.80;0.93;;;10.50;99.90;;;;;;5036940;28;20857;-74
2023/11/19 03:36:01;;;;;;;2.20;1.00;;;10.50;99.90;;;;;;5037527;28;20437;-74
2023/11/19 03:38:47;;;;;;;1.80;1.40;;;10.50;99.90;;;;;;5036323;28;20983;-74
2023/11/19 03:41:32;;;;;;;2.13;1.07;;;10.50;99.90;;;;;;5036763;28;20826;-74
2023/11/19 03:44:19;;;;;;;2.10;1.30;;;10.50;99.90;;;;;;5036344;28;20473;-74
2023/11/19 03:47:05;;;;;;;1.60;1.10;;;10.60;99.90;;;;;;5037277;28;20452;-74
2023/11/19 03:49:51;;;;;;;1.70;1.20;;;10.50;99.90;;;;;;5043086;28;20442;-74
2023/11/19 03:52:38;;;;;;;2.00;1.30;;;10.60;99.90;;;;;;5035996;28;21060;-74
2023/11/19 03:55:24;;;;;;;2.30;1.30;;;10.60;99.90;;;;;;5035707;28;20449;-74
2023/11/19 03:58:09;;;;;;;1.80;1.27;;;10.60;99.90;;;;;;5036271;28;20468;-75
2023/11/19 04:00:55;;;;;;;1.60;1.13;;;10.60;99.90;;;;;;5036069;28;20438;-74
2023/11/19 04:03:41;;;;;;;1.93;1.50;;;10.70;99.90;;;;;;5030286;28;20397;-74
2023/11/19 04:06:27;;;;;;;2.70;1.80;;;10.70;99.90;;;;;;5035336;28;20397;-75
2023/11/19 04:09:14;;;;;;;2.50;1.80;;;10.70;99.90;;;;;;5043630;28;20517;-74
2023/11/19 04:12:00;;;;;;;2.37;1.90;;;10.70;99.90;;;;;;5031945;28;20506;-74
2023/11/19 04:14:45;;;;;;;3.40;2.07;;;10.70;99.90;;;;;;5039380;28;20427;-74
2023/11/19 04:17:31;;;;;;;2.83;2.00;;;10.80;99.90;;;;;;5035507;28;20462;-74
2023/11/19 04:20:17;;;;;;;2.00;1.67;;;10.80;99.90;;;;;;5036180;28;20430;-74
2023/11/19 04:23:03;;;;;;;1.63;1.30;;;10.80;99.90;;;;;;5035993;28;20409;-74
2023/11/19 04:25:50;;;;;;;3.13;1.53;;;10.70;99.90;;;;;;5033387;28;20474;-74
2023/11/19 04:28:35;;;;;;;3.10;2.20;;;10.70;99.90;;;;;;5033076;28;20559;-74
2023/11/19 04:31:21;;;;;;;2.60;1.70;;;10.70;99.90;;;;;;5035085;28;20584;-74
2023/11/19 04:34:07;;;;;;;2.77;2.10;;;10.80;99.90;;;;;;5039121;28;20463;-74
2023/11/19 04:36:53;;;;;;;3.13;1.83;;;10.80;99.90;;;;;;5038918;28;20524;-74
2023/11/19 04:39:39;;;;;;;2.40;2.00;;;10.70;99.90;;;;;;5034382;28;20447;-74
2023/11/19 04:42:26;;;;;;;2.13;1.90;;;10.80;99.90;;;;;;5036593;28;20996;-74
2023/11/19 04:45:12;;;;;;;2.50;2.10;;;10.80;99.90;;;;;;5030175;28;20485;-75
2023/11/19 04:47:57;;;;;;;2.80;2.60;;;10.80;99.90;;;;;;5033670;28;20478;-74
2023/11/19 04:50:43;;;;;;;2.40;2.00;;;10.80;99.90;;;;;;5039239;28;20448;-75
2023/11/19 04:53:29;;;;;;;2.37;1.80;;;10.90;99.90;;;;;;5036959;28;20442;-72
2023/11/19 04:56:16;;;;;;;2.60;2.07;;;10.90;99.90;;;;;;5037832;28;20442;-74
2023/11/19 04:59:03;;;;;;;2.40;2.13;;;10.90;99.90;;;;;;5037035;28;20481;-75
2023/11/19 05:01:49;;;;;;;2.00;1.80;;;10.90;99.90;;;;;;5043183;28;20502;-74
2023/11/19 05:04:34;;;;;;;3.57;2.10;;;10.90;99.90;;;;;;5036389;28;20537;-75
2023/11/19 05:07:20;;;;;;;3.10;2.27;;;10.90;99.90;;;;;;5035250;28;20482;-74
2023/11/19 05:10:07;;;;;;;2.33;1.77;;;10.90;99.90;;;;;;5039553;28;20473;-74
2023/11/19 05:12:53;;;;;;;2.20;2.00;;;10.90;99.90;;;;;;5037219;28;20939;-74
2023/11/19 05:15:40;;;;;;;2.47;2.10;;;11.00;99.90;;;;;;5035899;28;20528;-74
2023/11/19 05:18:25;;;;;;;2.30;1.77;;;11.00;99.90;;;;;;5033342;28;20465;-74
2023/11/19 05:21:11;;;;;;;3.00;1.70;;;11.10;99.90;;;;;;5030265;28;21016;-74
2023/11/19 05:23:57;;;;;;;2.53;2.20;;;11.00;99.90;;;;;;5036667;28;20581;-74
2023/11/19 05:26:42;;;;;;;2.30;1.80;;;11.10;99.90;;;;;;5027235;28;20475;-74
2023/11/19 05:29:28;;;;;;;2.80;2.10;;;11.10;99.90;;;;;;5034455;28;20803;-74
2023/11/19 05:32:15;;;;;;;5.57;2.40;;;11.10;99.90;;;;;;5041389;28;20448;-74
2023/11/19 05:35:01;;;;;;;2.83;2.53;;;11.10;99.90;;;;;;5033802;28;20973;-74
2023/11/19 05:37:47;;;;;;;3.27;2.70;;;11.10;99.90;;;;;;5041333;28;20448;-75
2023/11/19 05:40:33;;;;;;;3.17;2.87;;;11.10;99.90;;;;;;5038524;28;21043;-75
2023/11/19 05:43:18;;;;;;;3.47;2.40;;;11.10;99.90;;;;;;5042646;28;20451;-74
2023/11/19 05:46:05;;;;;;;3.37;2.60;;;11.20;99.90;;;;;;5031519;28;20457;-75
2023/11/19 05:48:52;;;;;;;3.83;2.87;;;11.20;99.90;;;;;;5032693;28;20840;-75
2023/11/19 05:51:38;;;;;;;3.03;2.40;;;11.20;99.90;;;;;;5034995;28;20450;-75
2023/11/19 05:54:24;;;;;;;2.83;2.50;;;11.20;99.90;;;;;;5036035;28;20528;-75
2023/11/19 05:57:10;;;;;;;3.13;2.60;;;11.20;99.90;;;;;;5039543;28;20448;-75
2023/11/19 05:59:56;;;;;;;5.00;3.00;;;11.20;99.90;;;;;;5045043;28;20459;-75
2023/11/19 06:02:41;;;;;;;3.60;2.67;;;11.20;99.90;;;;;;5035802;28;20862;-75
2023/11/19 06:05:28;;;;;;;4.10;2.60;;;11.30;99.90;;;;;;5038486;28;20471;-75
2023/11/19 06:08:14;;;;;;;2.80;2.23;;;11.30;99.90;;;;;;5039920;28;20958;-75
2023/11/19 06:11:01;;;;;;;2.63;2.20;;;11.40;99.90;;;;;;5039798;28;20509;-75
2023/11/19 06:13:50;;;;;;;3.57;2.30;;;11.40;99.90;;;;;;5037140;28;20467;-75
2023/11/19 06:16:39;;;;;;;2.73;2.00;;;11.40;99.90;;;;;;5033559;28;20845;-75
2023/11/19 06:19:25;;;;;;;4.20;2.20;;;11.50;99.90;;;;;;5031758;28;20430;-74
2023/11/19 06:22:12;;;;;;;3.00;2.37;;;11.50;99.90;;;;;;5042613;28;20830;-74
2023/11/19 06:24:58;;;;;;;3.80;2.27;;;11.50;99.90;;;;;;5029657;28;20468;-74
2023/11/19 06:27:44;;;;;;;3.03;2.03;;;11.60;99.90;;;;;;5032004;28;20478;-75
2023/11/19 06:30:32;;;;;;;6.30;2.50;;;11.60;99.90;;;;;;5039119;28;20441;-74
2023/11/19 06:33:18;;;;;;;2.70;2.27;;;11.60;99.90;;;;;;5045062;28;20458;-75
2023/11/19 06:36:04;;;;;;;8.53;2.57;;;11.70;99.90;;;;;;5038689;28;20583;-75
2023/11/19 06:38:51;;;;;;;3.47;2.03;;;11.70;99.90;;;;;;5038793;28;20856;-75
2023/11/19 06:41:37;;;;;;;3.17;1.93;;;11.70;99.90;;;;;;5033080;28;21025;-75
2023/11/19 06:44:23;;;;;;;3.70;2.10;;;11.70;99.90;;;;;;5040337;28;20979;-75
2023/11/19 06:47:08;;;;;;;2.30;2.10;;;11.70;99.90;;;;;;5037393;28;20486;-74
2023/11/19 06:49:54;;;;;;;4.23;2.50;;;11.70;99.90;;;;;;5033733;28;20582;-75
2023/11/19 06:52:40;;;;;;;2.90;2.47;;;11.70;99.90;;;;;;5032381;28;20974;-75
2023/11/19 06:55:27;;;;;;;5.70;2.43;;;11.70;99.90;;;;;;5030677;28;20571;-75
2023/11/19 06:58:13;;;;;;;6.17;2.27;;;11.80;99.90;;;;;;5044004;28;20652;-73
2023/11/19 07:00:58;;;;;;;4.80;3.20;;;11.70;99.90;;;;;;5036096;28;20433;-74
2023/11/19 07:03:44;;;;;;;2.80;1.70;;;11.70;99.90;;;;;;5033045;28;20445;-75
2023/11/19 07:06:29;;;;;;;6.83;2.57;;;11.80;99.90;;;;;;5035718;28;20494;-75
2023/11/19 07:09:15;;;;;;;3.80;1.87;;;11.80;99.90;;;;;;5038174;28;20449;-75
2023/11/19 07:12:04;;;;;;;5.30;2.60;;;11.80;99.90;;;;;;5034368;28;20585;-75
2023/11/19 07:14:50;;;;;;;3.57;2.43;;;11.80;99.90;;;;;;5037030;28;20450;-75
2023/11/19 07:17:36;;;;;;;3.77;1.90;;;11.80;99.90;;;;;;5029766;28;20467;-75
2023/11/19 07:20:21;;;;;;;3.53;2.50;;;11.80;99.90;;;;;;5039085;28;20446;-74
2023/11/19 07:23:08;;;;;;;2.53;1.70;;;11.90;99.90;;;;;;5038057;28;20449;-75
2023/11/19 07:25:54;;;;;;;2.73;2.23;;;11.90;99.90;;;;;;5032518;28;20691;-75
2023/11/19 07:28:41;;;;;;;3.53;1.67;;;11.90;99.90;;;;;;5029040;28;20481;-75
2023/11/19 07:31:27;;;;;;;3.03;1.90;;;12.00;99.90;;;;;;5030899;28;20420;-76
2023/11/19 07:34:13;;;;;;;5.53;1.83;;;12.00;99.90;;;;;;5038936;28;20439;-75
2023/11/19 07:37:02;;;;;;;2.40;1.97;;;12.00;99.90;;;;;;5032432;28;20447;-75
2023/11/19 07:39:47;;;;;;;4.50;1.90;;;12.00;99.90;;;;;;5034027;28;20455;-75
2023/11/19 07:42:33;;;;;;;2.20;1.60;;;12.10;99.90;;;;;;5038020;28;20541;-75
2023/11/19 07:45:21;;;;;;;5.10;2.37;;;12.10;99.90;;;;;;5037292;28;20896;-74
2023/11/19 07:48:06;;;;;;;8.10;1.83;;;12.10;99.90;;;;;;5042732;28;20462;-74
2023/11/19 07:50:52;;;;;;;3.20;1.30;;;12.10;99.90;;;;;;5031055;28;20538;-74
2023/11/19 07:53:38;;;;;;;4.30;1.60;;;12.20;99.90;;;;;;5030191;28;20475;-74
2023/11/19 07:56:24;;;;;;;6.53;2.00;;;12.20;99.90;;;;;;5039466;28;20445;-74
2023/11/19 07:59:09;;;;;;;1.70;1.20;;;12.20;99.90;;;;;;5043560;28;20426;-74
2023/11/19 08:01:56;;;;;;;2.77;1.57;;;12.20;99.90;;;;;;5045751;28;20428;-74
2023/11/19 08:04:44;;;;;;;4.50;1.90;;;12.20;99.90;;;;;;5039172;28;20456;-74
2023/11/19 08:07:30;;;;;;;2.43;1.77;;;12.20;99.90;;;;;;5038610;28;20536;-74
2023/11/19 08:10:16;;;;;;;4.83;1.70;;;12.30;99.90;;;;;;5045353;28;20420;-74
2023/11/19 08:13:02;;;;;;;2.20;1.40;;;12.20;99.90;;;;;;5037588;28;20462;-74
2023/11/19 08:15:47;;;;;;;3.20;1.50;;;12.30;99.90;;;;;;5034735;28;21070;-74
2023/11/19 08:18:34;;;;;;;7.63;1.60;;;12.30;99.90;;;;;;5042532;28;20474;-74
2023/11/19 08:21:21;;;;;;;2.80;1.90;;;12.30;99.90;;;;;;5039887;28;20449;-74
2023/11/19 08:24:07;;;;;;;2.43;1.40;;;12.30;99.90;;;;;;5039393;28;20426;-75
2023/11/19 08:26:52;;;;;;;3.00;1.63;;;12.30;99.90;;;;;;5030471;28;20841;-74
2023/11/19 08:29:38;;;;;;;13.83;4.50;;;12.20;99.90;;;;;;5036727;28;20501;-74
2023/11/19 08:32:23;;;;;;;9.13;2.40;;;12.20;99.90;;;;;;5040832;28;20961;-74
2023/11/19 08:35:11;;;;;;;3.53;1.90;;;12.30;99.90;;;;;;5037864;28;20418;-75
2023/11/19 08:37:57;;;;;;;2.83;1.60;;;12.30;99.90;;;;;;5047610;28;20522;-74
2023/11/19 08:40:42;;;;;;;3.03;1.60;;;12.30;99.90;;;;;;5042370;28;20440;-74
2023/11/19 08:43:28;;;;;;;2.13;1.37;;;12.30;99.90;;;;;;5039800;28;20450;-74
2023/11/19 08:46:13;;;;;;;3.80;1.50;;;12.40;99.90;;;;;;5038455;28;20461;-74
2023/11/19 08:49:00;;;;;;;1.80;1.10;;;12.40;99.90;;;;;;5042654;28;20591;-74
2023/11/19 08:51:47;;;;;;;2.10;1.30;;;12.40;99.90;;;;;;5035624;28;20636;-74
2023/11/19 08:54:33;;;;;;;1.70;1.10;;;12.50;99.90;;;;;;5043578;28;20448;-74
2023/11/19 08:57:19;;;;;;;3.17;1.20;;;12.60;99.90;;;;;;5037039;28;20459;-74
2023/11/19 09:00:07;;;;;;;2.30;1.50;;;12.60;99.90;;;;;;5037794;28;20439;-74
2023/11/19 09:02:53;;;;;;;5.90;3.37;;;12.70;99.90;;;;;;5035528;28;20432;-74
2023/11/19 09:05:39;;;;;;;4.53;1.90;;;12.70;99.90;;;;;;5034300;28;20961;-75
2023/11/19 09:08:26;;;;;;;2.40;1.47;;;12.80;99.90;;;;;;5039375;28;20937;-75
2023/11/19 09:11:11;;;;;;;2.20;1.60;;;12.80;99.90;;;;;;5047059;28;20449;-74
2023/11/19 09:13:57;;;;;;;2.83;1.50;;;12.80;99.90;;;;;;5037095;28;20852;-74
2023/11/19 09:16:43;;;;;;;1.90;1.20;;;12.80;99.90;;;;;;5032363;28;20578;-74
2023/11/19 09:19:29;;;;;;;3.23;1.50;;;12.80;99.90;;;;;;5038102;28;20419;-75
2023/11/19 09:22:14;;;;;;;1.60;1.30;;;12.80;99.90;;;;;;5034786;28;20446;-75
2023/11/19 09:25:01;;;;;;;3.87;1.50;;;12.80;99.90;;;;;;5034157;28;20452;-75
2023/11/19 09:27:47;;;;;;;5.93;1.60;;;12.80;99.90;;;;;;5031752;28;20479;-75
2023/11/19 09:30:33;;;;;;;2.97;1.57;;;12.80;99.90;;;;;;5041607;28;20461;-75
2023/11/19 09:33:19;;;;;;;3.63;1.57;;;12.80;99.90;;;;;;5043581;28;20806;-75
2023/11/19 09:36:06;;;;;;;2.73;1.53;;;12.80;99.90;;;;;;5040960;28;20506;-75
2023/11/19 09:38:51;;;;;;;8.53;1.87;;;12.90;99.90;;;;;;5031242;28;20450;-75
2023/11/19 09:41:39;;;;;;;3.30;1.80;;;12.90;99.90;;;;;;5034728;28;20443;-75
2023/11/19 09:44:25;;;;;;;6.07;1.80;;;12.90;99.90;;;;;;5041878;28;20448;-75
2023/11/19 09:47:12;;;;;;;3.80;1.67;;;12.90;99.90;;;;;;5038845;28;20483;-75
2023/11/19 09:49:58;;;;;;;4.83;1.60;;;12.90;99.90;;;;;;5038241;28;20516;-75
2023/11/19 09:52:44;;;;;;;7.87;2.30;;;12.90;99.90;;;;;;5032901;28;20935;-75
2023/11/19 09:55:30;;;;;;;4.00;1.77;;;12.80;99.90;;;;;;5035466;28;20806;-75
2023/11/19 09:58:18;;;;;;;4.50;1.67;;;12.80;99.90;;;;;;5045885;28;20482;-74
2023/11/19 10:01:06;;;;;;;3.43;1.83;;;12.80;99.90;;;;;;5038730;28;20427;-74
2023/11/19 10:03:57;;;;;;;3.50;1.57;;;12.80;99.90;;;;;;5037804;28;20451;-74
2023/11/19 10:06:44;;;;;;;2.80;1.80;;;12.80;99.90;;;;;;5034419;28;20614;-75
2023/11/19 10:09:30;;;;;;;4.20;1.90;;;12.80;99.90;;;;;;5034810;28;20454;-75
2023/11/19 10:12:16;;;;;;;3.87;1.43;;;12.80;99.90;;;;;;5040846;28;20580;-74
2023/11/19 10:15:05;;;;;;;3.50;2.10;;;12.80;99.90;;;;;;5038317;28;20447;-74
2023/11/19 10:17:51;;;;;;;3.57;1.93;;;12.70;99.90;;;;;;5030915;28;20444;-74
2023/11/19 10:20:37;;;;;;;9.47;2.17;;;12.70;99.90;;;;;;5033488;28;20450;-77
2023/11/19 10:23:23;;;;;;;4.60;2.33;;;12.70;99.90;;;;;;5024006;28;20541;-77
2023/11/19 10:26:09;;;;;;;7.17;2.37;;;12.70;99.90;;;;;;5037316;28;20449;-76
2023/11/19 10:28:56;;;;;;;4.90;2.07;;;12.70;99.90;;;;;;5035076;28;20448;-76
2023/11/19 10:31:57;;;;;;;6.70;2.33;;;12.70;99.90;;;;;;5039422;28;20447;-77
2023/11/19 10:34:43;;;;;;;6.00;2.07;;;12.80;99.90;;;;;;5028631;28;20557;-76
2023/11/19 10:37:31;;;;;;;3.80;2.37;;;12.80;99.90;;;;;;5032630;28;20483;-76
2023/11/19 10:40:18;;;;;;;5.23;2.30;;;12.80;99.90;;;;;;5026398;28;20413;-76
2023/11/19 10:43:04;;;;;;;3.00;1.80;;;12.80;99.90;;;;;;5037726;28;20444;-76
2023/11/19 10:45:50;;;;;;;10.10;1.83;;;12.80;99.90;;;;;;5027167;28;20508;-76
2023/11/19 10:48:37;;;;;;;3.43;1.80;;;12.90;99.90;;;;;;5032800;28;20574;-75
2023/11/19 10:51:23;;;;;;;6.43;1.87;;;12.90;99.90;;;;;;5031695;28;20965;-76
2023/11/19 10:54:10;;;;;;;3.40;2.40;;;12.90;99.90;;;;;;5039216;28;20417;-76
2023/11/19 10:57:00;;;;;;;5.77;1.73;;;12.90;99.90;;;;;;5033069;28;20771;-76
2023/11/19 10:59:47;;;;;;;5.00;2.03;;;13.00;99.90;;;;;;5035811;28;20967;-77
2023/11/19 11:02:36;;;;;;;5.43;1.90;;;13.10;99.90;;;;;;5036801;28;20428;-78
2023/11/19 11:05:26;;;;;;;6.87;2.00;;;13.10;99.90;;;;;;5027059;28;21036;-77
2023/11/19 11:08:12;;;;;;;4.87;1.70;;;13.10;99.90;;;;;;5031500;28;20545;-76
2023/11/19 11:10:59;;;;;;;3.50;1.57;;;13.20;99.90;;;;;;5042241;28;20901;-76
2023/11/19 11:13:47;;;;;;;4.83;2.50;;;13.20;99.90;;;;;;5045462;28;20418;-77
2023/11/19 11:16:33;;;;;;;5.17;1.90;;;13.30;99.90;;;;;;5068609;28;20442;-77
2023/11/19 11:19:18;;;;;;;8.37;1.67;;;13.30;99.90;;;;;;5053431;28;20424;-75
2023/11/19 11:22:07;;;;;;;3.80;1.37;;;13.40;99.90;;;;;;5048267;28;20473;-74
2023/11/19 11:25:16;;;;;;;7.60;2.07;;;13.50;99.90;;;;;;5042359;28;20975;-76
2023/11/19 11:28:21;;;;;;;3.70;1.50;;;13.50;99.90;;;;;;5040382;28;20493;-74
2023/11/19 11:31:23;;;;;;;4.60;1.37;;;13.50;99.90;;;;;;5037982;28;20442;-76
2023/11/19 11:34:42;;;;;;;5.60;2.53;;;13.60;99.90;;;;;;5035149;28;20811;-75
2023/11/19 11:37:35;;;;;;;6.43;1.50;;;13.60;99.90;;;;;;5031393;28;20592;-75
2023/11/19 11:40:23;;;;;;;13.13;2.07;;;13.60;99.90;;;;;;5039395;28;20585;-74
2023/11/19 11:43:45;;;;;;;4.40;1.40;;;13.50;99.90;;;;;;5049108;28;20816;-74
2023/11/19 11:46:55;;;;;;;4.67;1.90;;;13.60;99.90;;;;;;5042573;28;20430;-76
2023/11/19 11:49:40;;;;;;;5.80;1.90;;;13.60;99.90;;;;;;5042913;28;20405;-76
2023/11/19 11:52:26;;;;;;;6.83;1.83;;;13.60;99.90;;;;;;5035840;28;21012;-75
2023/11/19 11:55:13;;;;;;;3.53;1.43;;;13.60;99.90;;;;;;5049939;28;20421;-74
2023/11/19 11:57:59;;;;;;;7.53;2.00;;;13.60;99.90;;;;;;5045836;28;20451;-77
2023/11/19 12:00:47;;;;;;;2.80;1.50;;;13.60;99.90;;;;;;5046610;28;20417;-76
2023/11/19 12:03:33;;;;;;;3.40;1.37;;;13.60;99.90;;;;;;5041522;28;20406;-76
2023/11/19 12:06:22;;;;;;;4.80;1.53;;;13.70;99.90;;;;;;5046121;28;20427;-76
2023/11/19 12:09:08;;;;;;;7.30;2.00;;;13.70;99.90;;;;;;5045654;28;20415;-76
2023/11/19 12:12:09;;;;;;;6.17;1.67;;;13.80;99.90;;;;;;5041465;28;20510;-76
2023/11/19 12:15:09;;;;;;;2.60;1.20;;;13.80;99.90;;;;;;5047606;28;20431;-75
2023/11/19 12:17:55;;;;;;;2.90;1.23;;;13.80;99.90;;;;;;5041039;28;20472;-75
2023/11/19 12:20:41;;;;;;;3.90;1.60;;;13.80;99.90;;;;;;5049684;28;20432;-75
2023/11/19 12:23:27;;;;;;;3.20;1.43;;;13.90;99.90;;;;;;5043619;28;20466;-76
2023/11/19 12:26:32;;;;;;;2.83;1.40;;;13.90;99.90;;;;;;5043137;28;20513;-75
2023/11/19 12:29:21;;;;;;;8.93;1.60;;;13.90;99.90;;;;;;5049315;28;20479;-76
2023/11/19 12:32:06;;;;;;;5.07;1.93;;;13.90;99.90;;;;;;5043250;28;20439;-76
2023/11/19 12:34:52;;;;;;;7.27;2.10;;;13.90;99.90;;;;;;5046353;28;20430;-76
2023/11/19 12:37:42;;;;;;;5.00;1.90;;;13.90;99.90;;;;;;5043261;28;20421;-77
2023/11/19 12:40:28;;;;;;;5.63;2.13;;;13.90;99.90;;;;;;5038877;28;20476;-76
2023/11/19 12:43:23;;;;;;;5.30;1.77;;;13.80;99.90;;;;;;5045441;28;20428;-76
2023/11/19 12:46:20;;;;;;;6.53;2.13;;;13.80;99.90;;;;;;5047357;28;20424;-76
2023/11/19 12:49:06;;;;;;;4.73;1.90;;;13.80;99.90;;;;;;5043491;28;20431;-75
2023/11/19 12:51:52;;;;;;;5.83;2.60;;;13.80;99.90;;;;;;5044223;28;20439;-75
2023/11/19 12:54:38;;;;;;;9.93;1.90;;;13.80;99.90;;;;;;5033516;28;20840;-75
2023/11/19 12:57:48;;;;;;;12.80;4.67;;;13.80;99.90;;;;;;5052097;28;21079;-76
2023/11/19 13:10:55;;;;;;;8.90;1.63;;;13.80;99.90;;;;;;5046642;28;20974;-76
2023/11/19 13:13:57;;;;;;;10.30;2.10;;;13.80;99.90;;;;;;5041487;28;20529;-75
2023/11/19 13:16:43;;;;;;;4.20;1.60;;;13.80;99.90;;;;;;5038581;28;20459;-76
2023/11/19 13:19:29;;;;;;;4.53;1.50;;;13.80;99.90;;;;;;5034307;28;20497;-75
2023/11/19 13:22:14;;;;;;;6.20;1.70;;;13.80;99.90;;;;;;5040554;28;20471;-75
2023/11/19 13:25:00;;;;;;;6.10;1.73;;;13.80;99.90;;;;;;5036799;28;20807;-75
2023/11/19 13:27:48;;;;;;;3.27;1.50;;;13.80;99.90;;;;;;5028893;28;20860;-75
2023/11/19 13:30:34;;;;;;;5.10;1.90;;;13.80;99.90;;;;;;5039301;28;20419;-76
2023/11/19 13:33:19;;;;;;;8.00;2.23;;;13.70;99.90;;;;;;5047601;28;20427;-75
2023/11/19 13:36:07;;;;;;;7.83;2.10;;;13.80;99.90;;;;;;5033121;28;20456;-76
2023/11/19 13:38:58;;;;;;;7.83;1.73;;;13.80;99.90;;;;;;5027969;28;20509;-75
2023/11/19 13:41:43;;;;;;;7.00;1.57;;;13.90;99.90;;;;;;5031500;28;20459;-76
2023/11/19 13:44:31;;;;;;;6.00;1.80;;;14.00;99.90;;;;;;5037482;28;20437;-76
2023/11/19 13:47:16;;;;;;;10.13;1.93;;;13.90;99.90;;;;;;5043987;28;20453;-75
2023/11/19 13:50:03;;;;;;;3.57;1.57;;;14.00;99.90;;;;;;5039995;28;20522;-75
2023/11/19 13:52:51;;;;;;;3.40;1.40;;;14.00;99.90;;;;;;5041608;28;20567;-75
2023/11/19 13:55:37;;;;;;;4.40;1.33;;;14.00;99.90;;;;;;5040631;28;20455;-75
2023/11/19 13:58:22;;;;;;;6.67;1.77;;;14.10;99.90;;;;;;5028354;28;20467;-75
2023/11/19 14:01:09;;;;;;;3.53;1.53;;;14.10;99.90;;;;;;5037633;28;21068;-75
2023/11/19 14:03:55;;;;;;;5.80;1.93;;;14.00;99.90;;;;;;5033703;28;20502;-76
2023/11/19 14:06:41;;;;;;;6.03;2.50;;;14.00;99.90;;;;;;5043915;28;20416;-75
2023/11/19 14:09:27;;;;;;;14.20;2.67;;;14.10;99.90;;;;;;5037777;28;20520;-75
2023/11/19 14:12:12;;;;;;;9.03;1.73;;;14.10;99.90;;;;;;5049464;28;20452;-75
2023/11/19 14:14:59;;;;;;;6.27;1.90;;;14.10;99.90;;;;;;5033382;28;20434;-76
2023/11/19 14:17:46;;;;;;;10.67;1.70;;;14.20;99.90;;;;;;5032737;28;20444;-75
2023/11/19 14:20:33;;;;;;;10.43;2.47;;;14.30;99.90;;;;;;5030522;28;20939;-75
2023/11/19 14:23:18;;;;;;;5.97;2.13;;;14.30;99.90;;;;;;5034618;28;20462;-76
2023/11/19 14:26:05;;;;;;;12.90;1.70;;;14.30;99.90;;;;;;5038512;28;20505;-76
2023/11/19 14:28:51;;;;;;;7.47;1.70;;;14.30;99.90;;;;;;5036087;28;21118;-75
2023/11/19 14:31:36;;;;;;;5.37;1.57;;;14.20;99.90;;;;;;5038768;28;20531;-76
2023/11/19 14:34:24;;;;;;;9.13;1.50;;;14.20;99.90;;;;;;5033495;28;20450;-75
2023/11/19 14:37:10;;;;;;;7.37;1.97;;;14.20;99.90;;;;;;5034071;28;21030;-75
2023/11/19 14:39:56;;;;;;;3.63;1.20;;;14.20;99.90;;;;;;5031737;28;20452;-75
2023/11/19 14:42:42;;;;;;;7.27;2.30;;;14.10;99.90;;;;;;5034718;28;21010;-75